Time;durP1;ratioP1;P1;durP2;ratioP2;P2;SDS_P1;SDS_P2;PMS_P1;PMS_P2;Temp;Humidity;BMP_temperature;BMP_pressure;BME280_temperature;BME280_humidity;BME280_pressure;Samples;Min_cycle;Max_cycle;Signal;HPM_P1;HPM_P2
2022/05/06 00:00:22;;;;;;;114.37;109.37;;;8.00;99.90;;;;;;4982073;28;20454;-82
2022/05/06 00:02:49;;;;;;;107.17;102.27;;;8.00;99.90;;;;;;4982699;28;20483;-81
2022/05/06 00:05:17;;;;;;;151.17;144.97;;;7.90;99.90;;;;;;4982872;28;20483;-80
2022/05/06 00:07:44;;;;;;;254.43;245.03;;;7.90;99.90;;;;;;4983716;28;20465;-81
2022/05/06 00:10:11;;;;;;;399.13;383.03;;;8.00;99.90;;;;;;4983311;28;20465;-80
2022/05/06 00:12:39;;;;;;;378.33;362.47;;;8.30;99.90;;;;;;4982788;28;20485;-82
2022/05/06 00:15:08;;;;;;;369.03;353.30;;;8.30;99.90;;;;;;5007651;23;20855;-80
2022/05/06 00:17:38;;;;;;;323.97;310.73;;;8.30;99.90;;;;;;4998914;28;20465;-83
2022/05/06 00:20:06;;;;;;;392.63;375.67;;;8.20;99.90;;;;;;4999131;28;20500;-82
2022/05/06 00:22:36;;;;;;;367.83;352.73;;;8.20;99.90;;;;;;4998735;28;20541;-83
2022/05/06 00:25:04;;;;;;;384.13;368.47;;;8.20;99.90;;;;;;4999465;28;20458;-82
2022/05/06 00:27:34;;;;;;;367.60;352.33;;;8.40;99.90;;;;;;4999572;28;20458;-83
2022/05/06 00:30:01;;;;;;;323.33;309.57;;;8.50;99.90;;;;;;4998656;28;20501;-82
2022/05/06 00:32:27;;;;;;;304.23;291.47;;;8.60;99.90;;;;;;4999487;28;20466;-83
2022/05/06 00:34:55;;;;;;;287.23;276.10;;;8.60;99.90;;;;;;4999099;28;20454;-82
2022/05/06 00:37:21;;;;;;;333.87;320.27;;;8.70;99.90;;;;;;4998573;28;20909;-82
2022/05/06 00:39:50;;;;;;;280.53;269.43;;;8.70;99.90;;;;;;4997311;28;20465;-80
2022/05/06 00:42:17;;;;;;;174.33;166.90;;;8.70;99.90;;;;;;4998058;28;20827;-80
2022/05/06 00:44:44;;;;;;;133.63;128.03;;;8.60;99.90;;;;;;4998335;28;20463;-80
2022/05/06 00:47:11;;;;;;;124.63;118.73;;;8.60;99.90;;;;;;4998240;28;20849;-80
2022/05/06 00:49:38;;;;;;;126.80;120.77;;;8.50;99.90;;;;;;4998650;28;20963;-82
2022/05/06 00:52:06;;;;;;;150.27;143.90;;;8.50;99.90;;;;;;4999160;28;20450;-81
2022/05/06 00:54:37;;;;;;;148.10;141.50;;;8.40;99.90;;;;;;4999379;28;20465;-82
2022/05/06 00:57:09;;;;;;;160.73;154.10;;;8.40;99.90;;;;;;4998680;28;20482;-81
2022/05/06 01:00:17;;;;;;;179.30;172.17;;;8.20;99.90;;;;;;4998387;28;20825;-81
2022/05/06 01:02:23;;;;;;;208.63;201.03;;;8.10;99.90;;;;;;4997902;28;20470;-81
2022/05/06 01:04:51;;;;;;;251.93;242.73;;;8.00;99.90;;;;;;4997405;28;20454;-81
2022/05/06 01:07:22;;;;;;;304.77;293.30;;;7.90;99.90;;;;;;4998222;28;20477;-81
2022/05/06 01:09:50;;;;;;;319.97;308.23;;;7.90;99.90;;;;;;4998508;28;20529;-82
2022/05/06 01:12:18;;;;;;;240.47;231.67;;;7.70;99.90;;;;;;4998385;28;20457;-81
2022/05/06 01:14:45;;;;;;;274.03;264.23;;;7.60;99.90;;;;;;4998974;28;20450;-82
2022/05/06 01:17:14;;;;;;;345.33;332.20;;;7.60;99.90;;;;;;4998561;28;20489;-82
2022/05/06 01:19:41;;;;;;;403.90;387.33;;;7.70;99.90;;;;;;4997701;28;20521;-82
2022/05/06 01:22:09;;;;;;;421.70;403.70;;;7.50;99.90;;;;;;4997061;28;20532;-82
2022/05/06 01:24:36;;;;;;;495.70;473.97;;;7.40;99.90;;;;;;4999121;28;20481;-82
2022/05/06 01:27:07;;;;;;;521.30;497.60;;;7.40;99.90;;;;;;4998649;28;20484;-81
2022/05/06 01:29:36;;;;;;;542.43;516.50;;;7.40;99.90;;;;;;4997789;28;20454;-82
2022/05/06 01:32:03;;;;;;;517.60;494.10;;;7.30;99.90;;;;;;4998120;28;21032;-81
2022/05/06 01:34:32;;;;;;;579.23;551.40;;;7.20;99.90;;;;;;4998820;28;20955;-83
2022/05/06 01:37:02;;;;;;;579.73;553.27;;;7.20;99.90;;;;;;4997680;28;20484;-82
2022/05/06 01:39:34;;;;;;;580.73;554.17;;;7.30;99.90;;;;;;4997466;28;20458;-82
2022/05/06 01:42:05;;;;;;;575.20;548.77;;;7.10;99.90;;;;;;4998077;28;20476;-81
2022/05/06 01:44:37;;;;;;;602.57;575.30;;;7.10;99.90;;;;;;4997459;28;20603;-80
2022/05/06 01:47:06;;;;;;;648.33;617.73;;;7.00;99.90;;;;;;4997586;28;20481;-81
2022/05/06 01:49:33;;;;;;;609.53;581.47;;;6.90;99.90;;;;;;5000598;28;20821;-82
2022/05/06 01:52:01;;;;;;;666.67;633.17;;;6.90;99.90;;;;;;5001798;28;20460;-81
2022/05/06 01:54:30;;;;;;;731.27;691.20;;;6.80;99.90;;;;;;5001753;28;20461;-82
2022/05/06 01:56:56;;;;;;;767.77;723.27;;;6.70;99.90;;;;;;5002179;28;20470;-81
2022/05/06 01:59:23;;;;;;;813.00;763.80;;;6.70;99.90;;;;;;5000957;28;20505;-81
2022/05/06 02:01:50;;;;;;;789.97;742.10;;;6.70;99.90;;;;;;5002643;28;20461;-81
2022/05/06 02:07:04;;;;;;;722.30;683.40;;;6.70;99.90;;;;;;4985016;28;20465;-83
2022/05/06 02:09:32;;;;;;;752.37;711.10;;;6.60;99.90;;;;;;5000910;28;20460;-81
2022/05/06 02:11:59;;;;;;;821.27;772.03;;;6.50;99.90;;;;;;5002040;28;20954;-82
2022/05/06 02:14:25;;;;;;;798.57;750.57;;;6.60;99.90;;;;;;5001983;28;20453;-81
2022/05/06 02:16:52;;;;;;;797.33;749.90;;;6.60;99.90;;;;;;5001616;28;20485;-83
2022/05/06 02:19:19;;;;;;;755.97;715.10;;;6.50;99.90;;;;;;5000923;28;20469;-81
2022/05/06 02:21:46;;;;;;;812.03;762.40;;;6.40;99.90;;;;;;5000802;28;20504;-81
2022/05/06 02:24:13;;;;;;;856.13;797.23;;;6.40;99.90;;;;;;5001278;28;20454;-81
2022/05/06 02:26:42;;;;;;;854.83;795.63;;;6.40;99.90;;;;;;5000845;28;20478;-81
2022/05/06 02:29:09;;;;;;;876.47;817.43;;;6.50;99.90;;;;;;5000887;28;20978;-80
2022/05/06 02:34:20;;;;;;;831.90;779.00;;;6.60;99.90;;;;;;5001110;28;20473;-81
2022/05/06 02:36:47;;;;;;;822.93;770.20;;;6.50;99.90;;;;;;5000986;28;20546;-81
2022/05/06 02:39:14;;;;;;;809.20;760.13;;;6.40;99.90;;;;;;5000476;28;20465;-82
2022/05/06 02:41:42;;;;;;;808.57;760.07;;;6.30;99.90;;;;;;5000812;28;20458;-80
2022/05/06 02:44:09;;;;;;;797.57;749.67;;;6.20;99.90;;;;;;5001157;28;20848;-81
2022/05/06 02:46:35;;;;;;;797.13;750.33;;;6.20;99.90;;;;;;5001188;28;20480;-81
2022/05/06 02:49:02;;;;;;;773.77;729.67;;;6.20;99.90;;;;;;5000317;28;20473;-81
2022/05/06 02:51:29;;;;;;;829.43;778.60;;;6.10;99.90;;;;;;5001057;28;20545;-81
2022/05/06 02:53:56;;;;;;;830.57;777.50;;;6.10;99.90;;;;;;5000892;28;20478;-81
2022/05/06 02:56:23;;;;;;;838.47;784.37;;;6.20;99.90;;;;;;5000925;28;21015;-81
2022/05/06 02:58:51;;;;;;;839.50;786.30;;;6.10;99.90;;;;;;4999357;28;20453;-81
2022/05/06 03:01:18;;;;;;;845.30;791.80;;;6.20;99.90;;;;;;5000144;28;20469;-81
2022/05/06 03:03:46;;;;;;;844.17;789.37;;;6.00;99.90;;;;;;5000569;28;20462;-80
2022/05/06 03:06:13;;;;;;;852.77;796.80;;;6.00;99.90;;;;;;5000499;28;20470;-81
2022/05/06 03:08:39;;;;;;;860.03;804.73;;;6.00;99.90;;;;;;4999456;28;20541;-81
2022/05/06 03:11:06;;;;;;;838.17;784.40;;;5.90;99.90;;;;;;4999963;28;20454;-81
2022/05/06 03:13:33;;;;;;;866.17;811.57;;;5.90;99.90;;;;;;5000230;28;20509;-81
2022/05/06 03:16:02;;;;;;;879.20;817.40;;;5.80;99.90;;;;;;4999979;28;20490;-81
2022/05/06 03:18:28;;;;;;;883.00;821.67;;;5.90;99.90;;;;;;4999514;28;20458;-81
2022/05/06 03:20:55;;;;;;;888.03;825.63;;;5.90;99.90;;;;;;5000019;28;20529;-81
2022/05/06 03:23:23;;;;;;;908.30;847.83;;;5.90;99.90;;;;;;4998606;28;20473;-82
2022/05/06 03:25:50;;;;;;;923.53;861.90;;;5.80;99.90;;;;;;4999740;28;20509;-82
2022/05/06 03:28:17;;;;;;;916.13;852.77;;;5.80;99.90;;;;;;4999053;28;20977;-81
2022/05/06 03:30:45;;;;;;;907.33;844.07;;;5.80;99.90;;;;;;5000258;28;20480;-82
2022/05/06 03:33:14;;;;;;;920.20;854.47;;;5.80;99.90;;;;;;4999830;28;20565;-82
2022/05/06 03:35:41;;;;;;;915.40;846.70;;;5.80;99.90;;;;;;4999998;28;20478;-82
2022/05/06 03:38:08;;;;;;;931.10;863.70;;;5.80;99.90;;;;;;4999599;28;20465;-83
2022/05/06 03:40:35;;;;;;;914.53;848.07;;;5.80;99.90;;;;;;4999497;28;20453;-81
2022/05/06 03:43:02;;;;;;;899.07;831.80;;;5.90;99.90;;;;;;4999409;28;20893;-81
2022/05/06 03:45:29;;;;;;;913.47;845.40;;;6.00;99.90;;;;;;4999406;28;21074;-81
2022/05/06 03:47:58;;;;;;;905.73;836.83;;;6.00;99.90;;;;;;4999056;28;20505;-81
2022/05/06 03:53:11;;;;;;;890.90;826.17;;;6.00;99.90;;;;;;4999767;28;20472;-81
2022/05/06 03:55:38;;;;;;;902.33;835.43;;;6.10;99.90;;;;;;4998822;28;20476;-81
2022/05/06 03:58:05;;;;;;;907.30;838.33;;;5.90;99.90;;;;;;4999458;28;20465;-85
2022/05/06 04:00:32;;;;;;;904.53;835.40;;;5.80;99.90;;;;;;4999539;28;20462;-82
2022/05/06 04:02:58;;;;;;;900.10;831.47;;;5.80;99.90;;;;;;4999329;28;20460;-81
2022/05/06 04:05:27;;;;;;;908.43;837.77;;;5.80;99.90;;;;;;4999459;28;20560;-81
2022/05/06 04:07:59;;;;;;;923.77;853.97;;;5.80;99.90;;;;;;4999035;28;20454;-81
2022/05/06 04:10:26;;;;;;;908.87;842.07;;;5.80;99.90;;;;;;4998145;28;20482;-81
2022/05/06 04:12:53;;;;;;;899.87;832.67;;;5.70;99.90;;;;;;4999764;28;20482;-82
2022/05/06 04:15:22;;;;;;;900.57;834.60;;;5.90;99.90;;;;;;4998755;28;20477;-79
2022/05/06 04:17:49;;;;;;;909.20;841.17;;;5.70;99.90;;;;;;4997050;28;21021;-82
2022/05/06 04:25:45;;;;;;;885.30;815.93;;;5.80;99.90;;;;;;4998481;28;20516;-82
2022/05/06 04:28:12;;;;;;;885.80;815.17;;;5.90;99.90;;;;;;4996158;28;20450;-82
2022/05/06 04:30:38;;;;;;;908.60;837.40;;;5.90;99.90;;;;;;4997742;28;20450;-82
2022/05/06 04:33:05;;;;;;;900.93;828.87;;;6.00;99.90;;;;;;4999303;28;20481;-80
2022/05/06 04:35:33;;;;;;;869.90;798.53;;;6.10;99.90;;;;;;4998239;28;20979;-82
2022/05/06 04:38:01;;;;;;;855.10;787.03;;;6.20;99.90;;;;;;4998250;28;20446;-81
2022/05/06 04:40:27;;;;;;;866.17;800.80;;;6.30;99.90;;;;;;4997874;28;20454;-81
2022/05/06 04:42:54;;;;;;;835.47;769.37;;;6.30;99.90;;;;;;4997672;28;20454;-82
2022/05/06 04:45:21;;;;;;;833.03;771.17;;;6.30;99.90;;;;;;4998281;28;20859;-81
2022/05/06 04:47:48;;;;;;;831.87;768.67;;;6.40;99.90;;;;;;4999365;28;20451;-81
2022/05/06 04:50:15;;;;;;;829.07;766.27;;;6.50;99.90;;;;;;4998552;28;20457;-82
2022/05/06 04:52:41;;;;;;;834.27;769.17;;;6.60;99.90;;;;;;4999637;28;20456;-81
2022/05/06 04:55:10;;;;;;;825.80;760.47;;;6.60;99.90;;;;;;4998976;28;20461;-80
2022/05/06 04:57:37;;;;;;;834.97;765.80;;;6.70;99.90;;;;;;4998620;28;20457;-81
2022/05/06 05:00:05;;;;;;;838.23;766.73;;;6.80;99.90;;;;;;4998539;28;20850;-82
2022/05/06 05:02:33;;;;;;;848.17;775.07;;;6.90;99.90;;;;;;4997883;28;20458;-81
2022/05/06 05:05:00;;;;;;;858.57;784.17;;;7.00;99.90;;;;;;4997679;28;20446;-81
2022/05/06 05:07:26;;;;;;;863.90;789.73;;;7.10;99.90;;;;;;4998896;28;20522;-80
2022/05/06 05:09:53;;;;;;;850.37;777.27;;;7.20;99.90;;;;;;4997744;28;20461;-83
2022/05/06 05:12:24;;;;;;;876.40;798.43;;;7.40;99.90;;;;;;4995572;28;20454;-81
2022/05/06 05:14:51;;;;;;;869.23;792.50;;;7.50;99.90;;;;;;4996617;28;20489;-81
2022/05/06 05:17:17;;;;;;;889.50;812.10;;;7.60;99.90;;;;;;4995095;28;20489;-81
2022/05/06 05:19:44;;;;;;;889.03;811.17;;;7.70;99.90;;;;;;4996375;28;20458;-82
2022/05/06 05:22:11;;;;;;;909.00;827.70;;;7.80;99.90;;;;;;4994000;28;20546;-81
2022/05/06 05:24:38;;;;;;;871.90;790.63;;;8.00;99.90;;;;;;4995892;28;20472;-81
2022/05/06 05:27:05;;;;;;;810.27;736.63;;;8.40;99.90;;;;;;4997381;28;20648;-82
2022/05/06 05:29:33;;;;;;;801.93;735.43;;;8.70;99.90;;;;;;4995881;28;20454;-83
2022/05/06 05:32:00;;;;;;;739.87;693.47;;;9.20;99.90;;;;;;4996989;28;20458;-82
2022/05/06 05:34:27;;;;;;;214.23;197.67;;;9.60;99.90;;;;;;4999503;28;20890;-82
2022/05/06 05:36:53;;;;;;;180.87;169.13;;;10.20;99.90;;;;;;4998433;28;20478;-84
2022/05/06 05:39:23;;;;;;;72.50;63.97;;;10.80;99.90;;;;;;4997625;28;20462;-81
2022/05/06 05:41:50;;;;;;;55.27;30.53;;;11.20;99.90;;;;;;4998617;28;20985;-81
2022/05/06 05:49:49;;;;;;;41.97;26.63;;;12.20;99.90;;;;;;4998570;28;20504;-82
2022/05/06 05:52:16;;;;;;;43.37;28.87;;;12.60;99.90;;;;;;4997562;28;20538;-82
2022/05/06 05:54:46;;;;;;;44.20;26.40;;;13.00;99.90;;;;;;4998646;28;20478;-82
2022/05/06 05:57:17;;;;;;;46.33;26.00;;;13.10;98.90;;;;;;5000831;28;20534;-84
2022/05/06 05:59:44;;;;;;;45.43;26.40;;;13.10;96.80;;;;;;4998916;28;20454;-82
2022/05/06 06:02:12;;;;;;;41.37;25.93;;;13.40;99.30;;;;;;4999430;28;20455;-83
2022/05/06 06:04:41;;;;;;;44.70;27.70;;;13.80;92.50;;;;;;4999632;28;20481;-82
2022/05/06 06:07:08;;;;;;;45.73;27.20;;;13.80;91.40;;;;;;4996788;28;20479;-82
2022/05/06 06:09:35;;;;;;;42.47;26.80;;;14.10;91.00;;;;;;4997661;28;20467;-84
2022/05/06 06:12:02;;;;;;;49.57;27.57;;;14.40;90.00;;;;;;4998964;28;20457;-82
2022/05/06 06:14:35;;;;;;;45.57;27.50;;;14.80;90.30;;;;;;5000277;28;20501;-82
2022/05/06 06:17:02;;;;;;;46.67;27.13;;;15.00;81.50;;;;;;5017134;23;20490;-80
2022/05/06 06:19:30;;;;;;;40.00;25.90;;;15.10;78.00;;;;;;4992430;28;20840;-79
2022/05/06 06:21:57;;;;;;;44.70;25.60;;;15.10;76.00;;;;;;4991787;28;20464;-79
2022/05/06 06:24:24;;;;;;;42.70;24.13;;;15.30;76.00;;;;;;4993147;28;20457;-79
2022/05/06 06:26:51;;;;;;;43.37;26.10;;;15.60;72.90;;;;;;4992622;28;21010;-79
2022/05/06 06:29:17;;;;;;;49.10;26.33;;;15.40;69.10;;;;;;4992496;28;20450;-79
2022/05/06 06:31:44;;;;;;;35.37;24.10;;;15.70;67.80;;;;;;4992856;28;20451;-79
2022/05/06 06:34:11;;;;;;;41.17;25.30;;;15.80;66.30;;;;;;4993894;28;20490;-80
2022/05/06 06:36:39;;;;;;;39.23;25.10;;;15.90;62.00;;;;;;4995647;28;20479;-79
2022/05/06 06:39:05;;;;;;;33.10;22.63;;;15.90;60.30;;;;;;4996600;28;20468;-82
2022/05/06 06:41:32;;;;;;;43.77;24.57;;;15.80;58.00;;;;;;4994384;28;20465;-84
2022/05/06 06:44:00;;;;;;;36.57;23.30;;;16.00;59.10;;;;;;4997441;28;20452;-82
2022/05/06 06:46:27;;;;;;;45.00;26.07;;;16.00;58.30;;;;;;4996366;28;20572;-84
2022/05/06 06:48:54;;;;;;;46.63;27.40;;;16.00;57.50;;;;;;4995675;28;20945;-82
2022/05/06 06:51:20;;;;;;;47.27;25.10;;;15.80;58.00;;;;;;4997042;28;20814;-81
2022/05/06 06:53:50;;;;;;;39.97;27.47;;;16.30;58.40;;;;;;4996327;28;20485;-83
2022/05/06 06:56:16;;;;;;;42.63;26.40;;;16.10;58.20;;;;;;4995690;28;20484;-82
2022/05/06 06:58:43;;;;;;;46.33;26.80;;;15.60;59.70;;;;;;4996424;28;20460;-80
2022/05/06 07:01:11;;;;;;;50.77;27.83;;;15.60;61.20;;;;;;4995955;28;20459;-81
2022/05/06 07:03:37;;;;;;;50.10;28.00;;;15.40;62.10;;;;;;4995843;28;20458;-81
2022/05/06 07:14:18;;;;;;;45.47;28.50;;;15.20;65.70;;;;;;4997839;28;20983;-83
2022/05/06 07:16:45;;;;;;;49.53;30.93;;;15.10;65.60;;;;;;4998883;28;20488;-83
2022/05/06 07:19:12;;;;;;;53.00;28.20;;;15.10;66.80;;;;;;4998270;28;20454;-84
2022/05/06 07:21:39;;;;;;;57.60;28.20;;;15.10;66.50;;;;;;4998702;28;20456;-84
2022/05/06 07:24:08;;;;;;;52.47;32.07;;;15.20;65.70;;;;;;4997697;28;20451;-84
2022/05/06 07:26:35;;;;;;;54.80;29.30;;;15.30;67.70;;;;;;4998917;28;20475;-85
2022/05/06 07:29:01;;;;;;;43.10;25.67;;;15.40;65.90;;;;;;4997938;28;20462;-84
2022/05/06 07:31:28;;;;;;;42.50;26.70;;;15.50;65.40;;;;;;4997451;28;20471;-85
2022/05/06 07:33:55;;;;;;;52.60;27.50;;;15.60;66.10;;;;;;4999184;28;20481;-85
2022/05/06 07:36:23;;;;;;;46.87;26.17;;;15.80;64.30;;;;;;4998870;28;20482;-83
2022/05/06 07:38:50;;;;;;;47.40;27.47;;;15.70;62.30;;;;;;4997702;28;20516;-83
2022/05/06 07:41:18;;;;;;;38.80;21.77;;;15.80;63.00;;;;;;4997736;28;20464;-84
2022/05/06 07:43:45;;;;;;;45.37;23.67;;;15.90;60.70;;;;;;4996471;28;20956;-84
2022/05/06 07:46:12;;;;;;;48.57;24.90;;;15.70;58.40;;;;;;4998999;28;20478;-85
2022/05/06 07:48:39;;;;;;;46.63;24.50;;;15.80;57.60;;;;;;4997942;28;20461;-84
2022/05/06 07:51:06;;;;;;;37.50;21.80;;;15.90;56.80;;;;;;4999184;28;20456;-85
2022/05/06 07:53:33;;;;;;;41.47;23.43;;;16.10;58.20;;;;;;4997870;28;20455;-83
2022/05/06 07:56:00;;;;;;;42.63;23.87;;;16.40;57.30;;;;;;4998923;28;20471;-84
2022/05/06 07:58:30;;;;;;;38.37;23.50;;;16.40;58.50;;;;;;4998518;28;20467;-85
2022/05/06 08:00:57;;;;;;;44.20;26.93;;;16.70;57.30;;;;;;4997403;28;20556;-84
2022/05/06 08:06:08;;;;;;;40.90;24.77;;;17.50;57.30;;;;;;4996918;28;20828;-83
2022/05/06 08:08:35;;;;;;;38.83;22.30;;;18.30;51.50;;;;;;4993763;28;20456;-84
2022/05/06 08:11:01;;;;;;;41.87;21.60;;;18.50;43.40;;;;;;4995642;28;20460;-83
2022/05/06 08:13:30;;;;;;;35.90;21.70;;;18.80;39.00;;;;;;4997444;28;20649;-84
2022/05/06 08:15:57;;;;;;;31.57;21.67;;;18.60;36.90;;;;;;4996899;28;20463;-82
2022/05/06 08:18:24;;;;;;;37.90;22.37;;;18.50;40.00;;;;;;4996541;28;20547;-84
2022/05/06 08:20:51;;;;;;;29.60;19.80;;;18.60;37.40;;;;;;4997785;28;20507;-83
2022/05/06 08:23:18;;;;;;;33.10;22.40;;;18.80;36.20;;;;;;4997670;28;20462;-85
2022/05/06 08:25:45;;;;;;;35.03;20.83;;;18.90;35.20;;;;;;4996892;28;20479;-84
2022/05/06 08:28:13;;;;;;;31.60;21.57;;;18.80;34.20;;;;;;4997627;28;20454;-85
2022/05/06 08:30:42;;;;;;;37.07;21.00;;;19.10;34.40;;;;;;4997365;28;21078;-85
2022/05/06 08:33:08;;;;;;;30.07;19.20;;;19.40;34.70;;;;;;4997635;28;21046;-83
2022/05/06 08:35:35;;;;;;;33.97;19.50;;;19.50;28.60;;;;;;4997689;28;20478;-83
2022/05/06 08:38:02;;;;;;;33.23;21.03;;;19.80;28.40;;;;;;4997876;28;20452;-85
2022/05/06 08:40:30;;;;;;;32.70;19.50;;;20.10;26.20;;;;;;4998324;28;20482;-85
2022/05/06 08:42:57;;;;;;;35.00;19.87;;;20.40;26.00;;;;;;4999038;28;20522;-83
2022/05/06 08:50:58;;;;;;;35.13;21.17;;;21.20;26.10;;;;;;4997026;28;20448;-85
2022/05/06 08:53:26;;;;;;;35.93;21.87;;;21.40;25.10;;;;;;4995644;28;20515;-86
2022/05/06 08:55:54;;;;;;;36.73;20.00;;;21.70;23.30;;;;;;4996002;28;20534;-85
2022/05/06 08:58:22;;;;;;;35.73;21.10;;;22.00;21.90;;;;;;4996914;28;20462;-85
2022/05/06 09:00:49;;;;;;;34.67;22.87;;;22.30;21.10;;;;;;5000128;28;20528;-84
2022/05/06 09:03:18;;;;;;;29.67;17.10;;;22.90;18.70;;;;;;5000326;28;20458;-85
2022/05/06 09:05:52;;;;;;;27.87;18.90;;;21.70;14.70;;;;;;4998856;28;20496;-84
2022/05/06 09:08:20;;;;;;;29.90;20.20;;;21.30;17.30;;;;;;4997654;28;20685;-86
2022/05/06 09:10:59;;;;;;;30.53;19.00;;;22.20;14.80;;;;;;4999020;28;20458;-85
2022/05/06 09:13:27;;;;;;;31.37;18.77;;;22.50;13.60;;;;;;4999309;28;20456;-84
2022/05/06 09:19:11;;;;;;;32.40;21.50;;;21.90;15.40;;;;;;4992959;28;20948;-84
2022/05/06 09:21:39;;;;;;;38.27;21.10;;;22.40;14.70;;;;;;4993236;28;20251;-83
2022/05/06 09:24:19;;;;;;;29.30;17.97;;;22.80;12.00;;;;;;4992662;28;20461;-83
2022/05/06 09:27:02;;;;;;;36.27;21.30;;;23.40;12.30;;;;;;4992883;28;20864;-83
2022/05/06 09:29:30;;;;;;;29.10;17.57;;;23.50;10.50;;;;;;4990918;28;20464;-83
2022/05/06 09:32:13;;;;;;;26.87;18.40;;;23.10;8.90;;;;;;4993073;28;20450;-83
2022/05/06 09:34:41;;;;;;;24.57;18.23;;;22.90;8.90;;;;;;4992841;28;20445;-83
2022/05/06 09:37:08;;;;;;;24.27;16.07;;;23.30;10.20;;;;;;4992892;28;20527;-83
2022/05/06 09:39:38;;;;;;;30.10;16.20;;;23.10;6.20;;;;;;4991766;28;20818;-83
2022/05/06 09:42:06;;;;;;;30.67;15.93;;;23.50;4.00;;;;;;4992908;28;20481;-83
2022/05/06 09:44:34;;;;;;;24.30;15.67;;;24.00;1.80;;;;;;4993760;28;20474;-83
2022/05/06 09:47:11;;;;;;;26.70;15.53;;;23.80;5.20;;;;;;4992844;28;20486;-83
2022/05/06 09:49:40;;;;;;;20.30;14.10;;;23.10;3.00;;;;;;4992167;28;20543;-81
2022/05/06 09:52:12;;;;;;;21.97;12.63;;;22.90;1.00;;;;;;4993346;28;20454;-81
2022/05/06 09:54:42;;;;;;;25.17;14.70;;;22.80;1.30;;;;;;4993157;28;20891;-81
2022/05/06 09:57:11;;;;;;;21.90;13.17;;;22.90;2.80;;;;;;4993167;28;20531;-80
2022/05/06 09:59:38;;;;;;;21.10;13.07;;;23.40;1.00;;;;;;4992257;28;20453;-81
2022/05/06 10:02:05;;;;;;;22.13;13.73;;;24.10;1.00;;;;;;4992700;28;20457;-80
2022/05/06 10:04:32;;;;;;;22.65;13.60;;;24.70;1.00;;;;;;4992813;28;20461;-81
2022/05/06 10:07:01;;;;;;;19.30;12.50;;;24.90;1.00;;;;;;4992743;28;20591;-83
2022/05/06 10:09:30;;;;;;;24.73;14.90;;;25.30;1.00;;;;;;4993693;28;20537;-86
2022/05/06 10:12:01;;;;;;;25.60;14.53;;;24.50;1.00;;;;;;4997325;28;20432;-83
2022/05/06 10:14:28;;;;;;;24.57;14.80;;;24.50;1.00;;;;;;4996668;28;20936;-85
2022/05/06 10:16:54;;;;;;;21.50;13.57;;;25.10;1.00;;;;;;4996656;28;20456;-84
2022/05/06 10:19:46;;;;;;;26.03;15.10;;;24.40;1.00;;;;;;4995705;28;20462;-85
2022/05/06 10:22:14;;;;;;;25.40;14.30;;;26.10;1.00;;;;;;4996451;28;20454;-84
2022/05/06 10:24:42;;;;;;;24.90;17.10;;;26.50;1.00;;;;;;4995698;28;21036;-84
2022/05/06 10:32:25;;;;;;;24.93;16.40;;;26.60;1.00;;;;;;4995901;28;20455;-84
2022/05/06 10:33:15;;;;;;;28.37;16.10;;;27.50;1.00;;;;;;4996329;28;20436;-83
2022/05/06 10:35:43;;;;;;;26.40;17.90;;;25.60;1.00;;;;;;4997596;28;20445;-84
2022/05/06 10:38:49;;;;;;;28.40;18.40;;;25.10;1.00;;;;;;4999979;28;20838;-86
2022/05/06 10:42:08;;;;;;;28.03;19.80;;;25.60;1.00;;;;;;4983049;28;20454;-86
2022/05/06 10:44:42;;;;;;;26.03;16.90;;;25.90;1.00;;;;;;4988115;28;20432;-85
2022/05/06 10:47:55;;;;;;;24.33;17.00;;;26.00;1.00;;;;;;5005049;28;20561;-84
2022/05/06 11:10:26;;;;;;;21.17;15.23;;;28.10;1.00;;;;;;5965712;23;20391;-88
2022/05/06 11:16:21;;;;;;;23.00;15.20;;;28.00;1.00;;;;;;4991378;23;20516;-87
2022/05/06 11:18:49;;;;;;;24.77;14.57;;;27.30;1.00;;;;;;5016130;28;21038;-85
2022/05/06 11:21:23;;;;;;;17.43;13.43;;;26.70;1.00;;;;;;5016700;28;20427;-85
2022/05/06 11:23:50;;;;;;;22.80;16.17;;;26.10;1.00;;;;;;5016532;28;20452;-85
2022/05/06 11:26:25;;;;;;;20.23;15.53;;;26.70;1.00;;;;;;5016373;28;20563;-83
2022/05/06 11:29:03;;;;;;;33.00;20.37;;;26.30;1.00;;;;;;5016189;28;20460;-85
2022/05/06 11:31:33;;;;;;;41.40;24.03;;;24.30;1.00;;;;;;5016250;28;20448;-86
2022/05/06 11:34:03;;;;;;;31.07;21.80;;;23.20;1.00;;;;;;5017221;28;20540;-85
2022/05/06 11:36:30;;;;;;;30.37;22.63;;;22.10;1.60;;;;;;5017117;28;20495;-86
2022/05/06 11:38:57;;;;;;;37.30;23.93;;;21.70;5.80;;;;;;5016497;28;20461;-86
2022/05/06 11:41:29;;;;;;;36.03;23.57;;;21.20;8.10;;;;;;5017392;28;20452;-85
2022/05/06 11:44:07;;;;;;;32.77;24.10;;;21.00;10.10;;;;;;5017292;28;20533;-85
2022/05/06 11:49:24;;;;;;;32.90;22.83;;;21.10;10.50;;;;;;5016434;28;20434;-85
2022/05/06 11:51:59;;;;;;;32.67;22.73;;;21.70;8.10;;;;;;5016780;28;20459;-83
2022/05/06 11:54:28;;;;;;;37.07;21.43;;;22.80;4.90;;;;;;5017501;28;20544;-85
2022/05/06 11:56:56;;;;;;;29.03;21.53;;;23.70;1.00;;;;;;5016697;28;20489;-86
2022/05/06 11:59:23;;;;;;;29.33;20.60;;;24.20;1.00;;;;;;5016031;28;20514;-87
2022/05/06 12:01:53;;;;;;;28.00;20.70;;;25.10;1.00;;;;;;5017209;28;20825;-86
2022/05/06 12:04:31;;;;;;;35.83;21.33;;;25.00;1.00;;;;;;5017239;28;20456;-87
2022/05/06 12:06:58;;;;;;;30.73;21.73;;;26.00;1.00;;;;;;5016727;28;20523;-87
2022/05/06 12:09:28;;;;;;;28.90;20.13;;;26.10;1.00;;;;;;5015849;28;20465;-86
2022/05/06 12:12:10;;;;;;;26.33;19.60;;;26.50;1.00;;;;;;5016404;28;20993;-85
2022/05/06 12:18:05;;;;;;;20.50;15.77;;;26.90;1.00;;;;;;4990342;28;20457;-85
2022/05/06 12:20:33;;;;;;;21.03;15.20;;;26.90;1.00;;;;;;5017031;28;20455;-80
2022/05/06 12:23:00;;;;;;;21.47;15.00;;;26.90;1.00;;;;;;5017296;28;20544;-81
2022/05/06 12:25:28;;;;;;;23.97;17.33;;;27.00;1.00;;;;;;5016578;28;20483;-81
2022/05/06 12:28:08;;;;;;;21.83;17.03;;;27.10;1.00;;;;;;5016445;28;20449;-81
2022/05/06 12:30:35;;;;;;;19.70;13.80;;;28.20;1.00;;;;;;5016723;28;20449;-81
2022/05/06 12:33:13;;;;;;;22.93;13.57;;;27.90;1.00;;;;;;5016622;28;20456;-81
2022/05/06 12:35:56;;;;;;;20.80;13.63;;;27.70;1.00;;;;;;5016510;28;20480;-81
2022/05/06 12:38:23;;;;;;;25.83;17.67;;;27.10;1.00;;;;;;5016677;28;20506;-81
2022/05/06 12:40:51;;;;;;;27.13;18.23;;;27.80;1.00;;;;;;5016879;28;20457;-81
2022/05/06 12:43:28;;;;;;;22.07;16.70;;;28.40;1.00;;;;;;5016255;28;20457;-81
2022/05/06 12:45:56;;;;;;;22.47;16.13;;;28.10;1.00;;;;;;5016947;28;20447;-80
2022/05/06 12:51:07;;;;;;;22.73;16.17;;;29.40;1.00;;;;;;5018688;28;20420;-81
2022/05/06 12:53:34;;;;;;;21.50;15.70;;;29.50;1.00;;;;;;5016053;28;20445;-81
2022/05/06 12:56:02;;;;;;;21.37;15.10;;;29.10;1.00;;;;;;5016958;28;20494;-81
2022/05/06 13:01:46;;;;;;;18.07;12.53;;;27.60;1.00;;;;;;4981331;28;20473;-81
2022/05/06 13:04:13;;;;;;;17.53;13.43;;;27.80;1.00;;;;;;4981698;28;20429;-81
2022/05/06 13:06:40;;;;;;;18.47;11.90;;;28.20;1.00;;;;;;5000879;28;20488;-81
2022/05/06 13:09:07;;;;;;;20.60;14.13;;;28.00;1.00;;;;;;5023253;28;20430;-81
2022/05/06 13:11:35;;;;;;;18.03;13.67;;;30.10;1.00;;;;;;5022124;28;20449;-81
2022/05/06 13:14:03;;;;;;;20.13;15.10;;;31.10;1.00;;;;;;5024424;28;20434;-81
2022/05/06 13:16:30;;;;;;;22.33;14.17;;;30.70;1.00;;;;;;5022733;28;20526;-81
2022/05/06 13:18:56;;;;;;;20.67;14.60;;;30.30;1.00;;;;;;5022797;28;20464;-81
2022/05/06 13:21:23;;;;;;;18.17;13.90;;;29.10;1.00;;;;;;5024191;28;20432;-81
2022/05/06 13:23:50;;;;;;;19.90;15.00;;;29.10;1.00;;;;;;5023362;28;20456;-81
2022/05/06 13:26:16;;;;;;;21.00;14.83;;;30.20;1.00;;;;;;5024256;28;20477;-81
2022/05/06 13:28:44;;;;;;;18.93;13.20;;;29.90;1.00;;;;;;5023569;28;20848;-81
2022/05/06 13:31:13;;;;;;;17.20;12.50;;;29.40;1.00;;;;;;5023736;28;20523;-81
2022/05/06 13:33:40;;;;;;;19.47;11.33;;;29.40;1.00;;;;;;5025170;28;20427;-81
2022/05/06 13:36:07;;;;;;;19.57;12.17;;;29.10;1.00;;;;;;5023986;28;20467;-81
2022/05/06 13:38:34;;;;;;;16.90;12.73;;;29.70;1.00;;;;;;5023713;28;20473;-81
2022/05/06 13:41:00;;;;;;;15.10;11.30;;;29.80;1.00;;;;;;5024939;28;20427;-81
2022/05/06 13:43:27;;;;;;;19.30;11.50;;;29.10;1.00;;;;;;5025385;28;20459;-81
2022/05/06 13:45:55;;;;;;;15.93;11.80;;;29.40;1.00;;;;;;5028456;28;20454;-81
2022/05/06 13:48:23;;;;;;;16.20;11.00;;;29.10;1.00;;;;;;5028319;28;20463;-81
2022/05/06 13:50:50;;;;;;;15.60;10.70;;;29.10;1.00;;;;;;5029061;28;20455;-81